Time;durP1;ratioP1;P1;durP2;ratioP2;P2;SDS_P1;SDS_P2;PMS_P1;PMS_P2;Temp;Humidity;BMP_temperature;BMP_pressure;BME280_temperature;BME280_humidity;BME280_pressure;Samples;Min_cycle;Max_cycle;Signal;HPM_P1;HPM_P2
2024/02/19 00:00:09;;;;;;;25.83;10.10;;;;;;;8.35;100.00;102228.31;4985822;28;20034;-79
2024/02/19 00:02:38;;;;;;;26.17;8.27;;;;;;;8.32;100.00;102231.09;4987356;28;20104;-78
2024/02/19 00:05:04;;;;;;;23.70;8.10;;;;;;;8.35;100.00;102241.25;4972463;28;20041;-80
2024/02/19 00:07:29;;;;;;;28.48;8.35;;;;;;;8.33;100.00;102237.94;4973170;28;20049;-79
2024/02/19 00:09:55;;;;;;;28.25;7.38;;;;;;;8.31;100.00;102241.56;4985008;28;20033;-78
2024/02/19 00:12:20;;;;;;;33.53;7.22;;;;;;;8.31;100.00;102237.22;4983805;28;20182;-78
2024/02/19 00:14:46;;;;;;;25.27;8.07;;;;;;;8.34;100.00;102239.63;4964299;28;20045;-79
2024/02/19 00:17:12;;;;;;;26.23;6.65;;;;;;;8.31;100.00;102247.56;4987060;28;20053;-79
2024/02/19 00:19:39;;;;;;;24.50;7.15;;;;;;;8.23;100.00;102249.88;5005517;28;20030;-79
2024/02/19 00:22:06;;;;;;;23.27;7.15;;;;;;;8.34;100.00;102257.72;4972519;28;20030;-79
2024/02/19 00:24:32;;;;;;;24.70;6.68;;;;;;;8.39;100.00;102250.44;4975807;28;20035;-80
2024/02/19 00:26:57;;;;;;;23.45;6.47;;;;;;;8.39;100.00;102254.78;4974759;28;20037;-79
2024/02/19 00:29:23;;;;;;;33.13;6.18;;;;;;;8.34;100.00;102247.38;4988095;28;20145;-78
2024/02/19 00:31:48;;;;;;;26.05;5.55;;;;;;;8.34;100.00;102257.72;4969511;28;20050;-79
2024/02/19 00:34:15;;;;;;;33.92;5.47;;;;;;;8.34;100.00;102256.84;4992415;28;20040;-79
2024/02/19 00:36:41;;;;;;;21.05;4.75;;;;;;;8.35;100.00;102264.50;4986652;28;20125;-78
2024/02/19 00:39:06;;;;;;;25.55;4.80;;;;;;;8.30;100.00;102258.81;4983336;28;20029;-79
2024/02/19 00:41:32;;;;;;;30.40;5.05;;;;;;;8.34;100.00;102257.72;4988848;28;20037;-78
2024/02/19 00:43:57;;;;;;;26.42;4.78;;;;;;;8.33;100.00;102255.22;4986016;28;20038;-78
2024/02/19 00:46:23;;;;;;;22.42;4.43;;;;;;;8.40;100.00;102266.78;5001132;28;20046;-78
2024/02/19 00:48:48;;;;;;;23.25;3.78;;;;;;;8.39;100.00;102270.28;4991771;28;20034;-78
2024/02/19 00:51:14;;;;;;;16.73;3.78;;;;;;;8.40;100.00;102279.72;4988584;28;20076;-78
2024/02/19 00:53:39;;;;;;;20.77;4.95;;;;;;;8.39;100.00;102265.94;4990644;28;20029;-79
2024/02/19 00:56:05;;;;;;;21.48;4.50;;;;;;;8.34;100.00;102270.63;4975436;28;20050;-78
2024/02/19 00:58:31;;;;;;;29.25;4.15;;;;;;;8.34;100.00;102270.63;4990185;28;20030;-80
2024/02/19 01:00:58;;;;;;;21.48;4.15;;;;;;;8.33;100.00;102271.53;4989012;28;20484;-77
2024/02/19 01:03:25;;;;;;;29.88;3.80;;;;;;;8.29;100.00;102275.28;4974974;28;20032;-78
2024/02/19 01:05:51;;;;;;;26.10;3.80;;;;;;;8.28;100.00;102272.78;4982580;28;20038;-78
2024/02/19 01:08:16;;;;;;;27.23;3.83;;;;;;;8.18;100.00;102272.59;4969390;28;20104;-78
2024/02/19 01:10:41;;;;;;;15.38;3.78;;;;;;;8.26;100.00;102274.66;4953196;28;20043;-79
2024/02/19 01:13:07;;;;;;;20.48;3.80;;;;;;;8.30;100.00;102279.50;4966347;28;20509;-78
2024/02/19 01:15:33;;;;;;;28.67;3.83;;;;;;;8.28;100.00;102283.13;4987361;28;21373;-79
2024/02/19 01:17:58;;;;;;;21.15;3.75;;;;;;;8.22;100.00;102286.13;4986622;28;20042;-78
2024/02/19 01:20:23;;;;;;;23.77;3.75;;;;;;;8.26;100.00;102296.16;4988515;28;20037;-79
2024/02/19 01:22:51;;;;;;;20.88;3.47;;;;;;;8.30;100.00;102289.03;4972228;28;20041;-78
2024/02/19 01:25:19;;;;;;;23.17;3.95;;;;;;;8.31;100.00;102295.84;4986857;28;20022;-78
2024/02/19 01:27:45;;;;;;;20.90;4.07;;;;;;;8.34;100.00;102296.47;4980033;28;20038;-78
2024/02/19 01:30:11;;;;;;;15.45;3.38;;;;;;;8.24;100.00;102302.38;4972091;28;20065;-77
2024/02/19 01:32:37;;;;;;;22.77;4.15;;;;;;;8.27;100.00;102300.41;4967631;28;20505;-78
2024/02/19 01:35:03;;;;;;;28.77;4.07;;;;;;;8.23;100.00;102304.13;4948376;28;20026;-78
2024/02/19 01:37:28;;;;;;;27.38;3.45;;;;;;;8.22;100.00;102305.03;4982899;28;20056;-77
2024/02/19 01:39:54;;;;;;;24.33;3.20;;;;;;;8.25;100.00;102301.41;4974905;28;20033;-78
2024/02/19 01:42:19;;;;;;;20.20;3.22;;;;;;;8.21;100.00;102312.91;4968784;28;20050;-78
2024/02/19 01:44:45;;;;;;;19.70;3.42;;;;;;;8.15;100.00;102303.81;4946230;28;20038;-78
2024/02/19 01:47:11;;;;;;;21.10;3.58;;;;;;;8.25;100.00;102312.59;4992859;28;20102;-77
2024/02/19 01:49:38;;;;;;;19.90;3.75;;;;;;;8.25;100.00;102307.44;4983930;28;20030;-79
2024/02/19 01:52:05;;;;;;;22.30;3.78;;;;;;;8.25;100.00;102298.84;4989723;28;20105;-77
2024/02/19 01:54:30;;;;;;;18.40;2.90;;;;;;;8.27;100.00;102307.31;5006514;28;20030;-78
2024/02/19 01:56:56;;;;;;;19.50;3.72;;;;;;;8.18;100.00;102311.34;4989040;28;20038;-79
2024/02/19 01:59:22;;;;;;;33.28;4.22;;;;;;;8.17;100.00;102320.03;5006113;28;20061;-78
2024/02/19 02:01:48;;;;;;;20.38;3.55;;;;;;;8.17;100.00;102310.53;4989539;28;20070;-78
2024/02/19 02:04:16;;;;;;;27.60;3.20;;;;;;;8.21;100.00;102311.13;5006687;28;20042;-79
2024/02/19 02:06:43;;;;;;;17.20;3.47;;;;;;;8.15;100.00;102319.31;4988086;28;20049;-78
2024/02/19 02:09:10;;;;;;;25.85;3.10;;;;;;;8.24;100.00;102321.28;4973818;28;20488;-79
2024/02/19 02:11:36;;;;;;;27.08;3.00;;;;;;;8.24;100.00;102320.47;5006088;28;20080;-78
2024/02/19 02:14:01;;;;;;;20.48;4.03;;;;;;;8.29;100.00;102326.16;4990179;28;20037;-79
2024/02/19 02:16:28;;;;;;;14.57;2.15;;;;;;;8.19;100.00;102331.94;4985833;28;20037;-78
2024/02/19 02:18:55;;;;;;;21.98;2.60;;;;;;;8.10;100.00;102323.94;4987349;28;20646;-79
2024/02/19 02:21:21;;;;;;;16.10;2.40;;;;;;;8.11;100.00;102325.63;4983258;28;20396;-77
2024/02/19 02:23:48;;;;;;;13.85;2.40;;;;;;;8.15;100.00;102333.03;4985822;28;20073;-79
2024/02/19 02:26:13;;;;;;;23.70;2.60;;;;;;;8.24;100.00;102334.19;4967949;28;20037;-76
2024/02/19 02:28:39;;;;;;;25.27;3.22;;;;;;;8.18;100.00;102335.44;4986478;28;20078;-79
2024/02/19 02:31:05;;;;;;;25.23;2.72;;;;;;;8.26;100.00;102341.84;4975476;28;20046;-78
2024/02/19 02:33:30;;;;;;;25.50;3.50;;;;;;;8.21;100.00;102341.31;4990357;28;20077;-79
2024/02/19 02:35:56;;;;;;;19.05;3.10;;;;;;;8.28;100.00;102345.16;4991470;28;20069;-80
2024/02/19 02:38:21;;;;;;;23.95;2.75;;;;;;;8.19;100.00;102355.19;4988514;28;20034;-79
2024/02/19 02:40:47;;;;;;;26.83;2.45;;;;;;;8.17;100.00;102351.03;4971696;28;20046;-78
2024/02/19 02:43:12;;;;;;;27.27;5.13;;;;;;;8.26;100.00;102347.84;5003637;28;20056;-79
2024/02/19 02:45:38;;;;;;;18.23;2.63;;;;;;;8.23;100.00;102350.66;4998758;28;20073;-78
2024/02/19 02:48:03;;;;;;;15.98;1.90;;;;;;;8.08;100.00;102349.91;4987537;28;20109;-78
2024/02/19 02:50:29;;;;;;;20.27;2.67;;;;;;;8.13;100.00;102352.19;4972969;28;20042;-77
2024/02/19 02:52:54;;;;;;;18.85;3.63;;;;;;;8.08;100.00;102346.47;5001895;28;20041;-78
2024/02/19 02:55:20;;;;;;;17.33;2.67;;;;;;;8.07;100.00;102340.50;5003036;28;20473;-78
2024/02/19 02:57:45;;;;;;;16.17;2.08;;;;;;;8.14;100.00;102343.50;4973259;28;20473;-78
2024/02/19 03:00:11;;;;;;;22.73;2.10;;;;;;;8.14;100.00;102341.75;4974420;28;20030;-78
2024/02/19 03:02:37;;;;;;;20.25;2.58;;;;;;;8.14;100.00;102333.16;4971552;28;20158;-78
2024/02/19 03:05:02;;;;;;;21.08;2.55;;;;;;;8.10;100.00;102335.13;4990678;28;20532;-78
2024/02/19 03:07:28;;;;;;;21.27;2.65;;;;;;;8.15;100.00;102335.63;4989267;28;20416;-79
2024/02/19 03:09:53;;;;;;;12.65;1.88;;;;;;;8.14;100.00;102339.16;4975776;28;20420;-79
2024/02/19 03:12:19;;;;;;;22.02;2.92;;;;;;;8.08;100.00;102339.56;4986598;28;20509;-79
2024/02/19 03:14:44;;;;;;;16.75;2.10;;;;;;;8.07;100.00;102348.25;5005560;28;20038;-78
2024/02/19 03:17:10;;;;;;;24.63;2.72;;;;;;;8.08;100.00;102349.91;4989869;28;20049;-78
2024/02/19 03:19:35;;;;;;;17.85;2.47;;;;;;;8.07;100.00;102350.81;4989468;28;20029;-79
2024/02/19 03:22:04;;;;;;;11.48;2.22;;;;;;;7.97;100.00;102355.78;4969201;28;20400;-79
2024/02/19 03:24:30;;;;;;;20.50;3.47;;;;;;;8.02;100.00;102355.47;4972446;28;20093;-79
2024/02/19 03:26:58;;;;;;;15.05;2.13;;;;;;;7.93;100.00;102356.91;5007427;28;20573;-78
2024/02/19 03:29:24;;;;;;;21.35;3.67;;;;;;;8.01;100.00;102356.41;4986692;28;20042;-79
2024/02/19 03:31:49;;;;;;;26.58;3.25;;;;;;;8.01;100.00;102364.16;4990988;28;20038;-79
2024/02/19 03:34:15;;;;;;;24.13;3.58;;;;;;;8.05;100.00;102359.63;4974411;28;20038;-79
2024/02/19 03:36:50;;;;;;;22.90;3.72;;;;;;;8.02;100.00;102359.81;4990815;28;20498;-78
2024/02/19 03:39:16;;;;;;;27.67;4.50;;;;;;;8.07;100.00;102358.56;5004778;28;20036;-78
2024/02/19 03:41:42;;;;;;;29.25;4.28;;;;;;;7.97;100.00;102339.47;4985039;28;20072;-79
2024/02/19 03:44:07;;;;;;;20.50;4.20;;;;;;;7.97;100.00;102344.63;4989386;28;20026;-78
2024/02/19 03:46:33;;;;;;;24.98;4.25;;;;;;;7.94;100.00;102339.66;4972442;28;20594;-78
2024/02/19 03:48:58;;;;;;;28.08;5.00;;;;;;;7.89;100.00;102337.38;4988545;28;20037;-79
2024/02/19 03:51:24;;;;;;;20.15;3.53;;;;;;;7.89;100.00;102339.13;4987676;28;20030;-79
2024/02/19 03:53:50;;;;;;;39.50;5.90;;;;;;;7.78;100.00;102335.50;4984949;28;20684;-79
2024/02/19 03:56:17;;;;;;;17.98;3.55;;;;;;;7.69;100.00;102332.69;4990105;28;20045;-79
2024/02/19 03:58:43;;;;;;;17.35;3.45;;;;;;;7.70;100.00;102335.16;5004782;28;20034;-79
2024/02/19 04:01:08;;;;;;;27.38;5.35;;;;;;;7.75;100.00;102340.03;4974081;28;20119;-79
2024/02/19 04:03:33;;;;;;;26.23;3.88;;;;;;;7.74;100.00;102339.22;4973835;28;20045;-78
2024/02/19 04:05:59;;;;;;;26.05;4.75;;;;;;;7.76;100.00;102349.41;4969417;28;20050;-79
2024/02/19 04:08:24;;;;;;;23.90;4.75;;;;;;;7.78;100.00;102342.41;4975049;28;20052;-79
2024/02/19 04:10:50;;;;;;;22.92;4.80;;;;;;;7.72;100.00;102350.53;4973756;28;20049;-79
2024/02/19 04:13:15;;;;;;;25.27;4.68;;;;;;;7.72;100.00;102360.88;4988853;28;20033;-78
2024/02/19 04:15:41;;;;;;;26.73;4.82;;;;;;;7.73;100.00;102353.03;4973237;28;20053;-79
2024/02/19 04:18:06;;;;;;;26.58;4.53;;;;;;;7.86;100.00;102354.84;5011802;28;20486;-79
2024/02/19 04:20:32;;;;;;;18.88;3.95;;;;;;;7.76;100.00;102360.59;5000106;28;20049;-78
2024/02/19 04:22:57;;;;;;;19.20;4.93;;;;;;;7.74;100.00;102362.44;5002288;28;20040;-78
2024/02/19 04:25:23;;;;;;;20.40;4.20;;;;;;;7.79;100.00;102357.78;4973646;28;20034;-79
2024/02/19 04:27:49;;;;;;;21.25;4.03;;;;;;;7.84;100.00;102364.44;4985303;28;20161;-79
2024/02/19 04:30:14;;;;;;;25.58;5.38;;;;;;;7.73;100.00;102368.53;5006871;28;20025;-78
2024/02/19 04:32:40;;;;;;;14.48;3.15;;;;;;;7.70;100.00;102376.47;4972962;28;20034;-79
2024/02/19 04:35:06;;;;;;;23.35;3.83;;;;;;;7.72;100.00;102368.63;5004931;28;20511;-79
2024/02/19 04:37:32;;;;;;;20.80;3.00;;;;;;;7.77;100.00;102369.97;4988439;28;20048;-79
2024/02/19 04:39:57;;;;;;;26.23;3.58;;;;;;;7.75;100.00;102371.84;4992321;28;20030;-79
2024/02/19 04:42:22;;;;;;;23.48;3.55;;;;;;;7.82;100.00;102372.28;4993560;28;20029;-78
2024/02/19 04:44:48;;;;;;;21.98;2.95;;;;;;;7.74;100.00;102366.75;4971787;28;20409;-79
2024/02/19 04:47:13;;;;;;;25.25;3.35;;;;;;;7.69;100.00;102367.06;5009154;28;20092;-79
2024/02/19 04:49:39;;;;;;;21.17;3.33;;;;;;;7.74;100.00;102379.69;4989280;28;20022;-78
2024/02/19 04:52:05;;;;;;;22.17;3.28;;;;;;;7.75;100.00;102381.34;5004934;28;20038;-78
2024/02/19 04:54:30;;;;;;;21.10;2.70;;;;;;;7.71;100.00;102377.31;4986409;28;20034;-78
2024/02/19 04:56:56;;;;;;;19.75;3.25;;;;;;;7.73;100.00;102367.72;4986262;28;20042;-79
2024/02/19 04:59:21;;;;;;;27.77;2.65;;;;;;;7.66;100.00;102364.69;5005599;28;20640;-78
2024/02/19 05:01:47;;;;;;;23.73;2.80;;;;;;;7.73;100.00;102365.94;4986795;28;20444;-78
2024/02/19 05:04:12;;;;;;;18.50;2.55;;;;;;;7.78;100.00;102353.56;4989362;28;20033;-79
2024/02/19 05:06:38;;;;;;;21.48;3.05;;;;;;;7.75;100.00;102347.78;4982808;28;20052;-78
2024/02/19 05:09:03;;;;;;;16.38;3.22;;;;;;;7.72;100.00;102360.88;5005575;28;20038;-78
2024/02/19 05:11:30;;;;;;;11.75;2.80;;;;;;;7.75;100.00;102358.09;4986151;28;20053;-78
2024/02/19 05:13:55;;;;;;;18.30;2.40;;;;;;;7.68;100.00;102356.84;4986445;28;20087;-78
2024/02/19 05:16:21;;;;;;;20.30;3.17;;;;;;;7.65;100.00;102351.88;4969860;28;20448;-79
2024/02/19 05:18:46;;;;;;;21.08;4.97;;;;;;;7.61;100.00;102361.59;4987916;28;20076;-79
2024/02/19 05:21:12;;;;;;;17.65;3.10;;;;;;;7.58;100.00;102362.59;4973533;28;20088;-78
2024/02/19 05:23:37;;;;;;;24.02;3.95;;;;;;;7.67;100.00;102371.50;4974732;28;20034;-79
2024/02/19 05:26:04;;;;;;;18.52;3.00;;;;;;;7.71;100.00;102374.72;4990644;28;20057;-78
2024/02/19 05:28:31;;;;;;;25.63;3.15;;;;;;;7.69;100.00;102371.41;5007436;28;20040;-79
2024/02/19 05:30:57;;;;;;;15.80;2.65;;;;;;;7.65;100.00;102375.94;4986862;28;20472;-78
2024/02/19 05:33:22;;;;;;;16.88;3.17;;;;;;;7.64;100.00;102374.28;4991935;28;20044;-79
2024/02/19 05:35:48;;;;;;;15.70;2.80;;;;;;;7.59;100.00;102369.44;4987767;28;20105;-79
2024/02/19 05:38:13;;;;;;;17.55;2.67;;;;;;;7.58;100.00;102374.69;4984054;28;20069;-78
2024/02/19 05:40:39;;;;;;;17.77;2.85;;;;;;;7.56;100.00;102377.34;5008882;28;20061;-78
2024/02/19 05:43:05;;;;;;;15.13;2.60;;;;;;;7.57;100.00;102381.59;4974168;28;20031;-79
2024/02/19 05:45:31;;;;;;;14.48;2.47;;;;;;;7.57;100.00;102381.59;4986470;28;20146;-78
2024/02/19 05:47:57;;;;;;;17.58;2.42;;;;;;;7.57;100.00;102376.44;4987053;28;20115;-79
2024/02/19 05:50:22;;;;;;;14.38;2.97;;;;;;;7.56;100.00;102389.44;4987643;28;20053;-79
2024/02/19 05:52:48;;;;;;;16.33;2.70;;;;;;;7.53;100.00;102385.28;5005839;28;20389;-79
2024/02/19 05:55:13;;;;;;;18.15;2.45;;;;;;;7.53;100.00;102389.63;4989798;28;20029;-78
2024/02/19 05:57:39;;;;;;;12.30;2.40;;;;;;;7.52;100.00;102388.00;4987096;28;20640;-78
2024/02/19 06:00:06;;;;;;;16.02;3.95;;;;;;;7.55;100.00;102395.50;4972922;28;20037;-78
2024/02/19 06:02:33;;;;;;;24.08;2.83;;;;;;;7.54;100.00;102389.53;5006654;28;20034;-79
2024/02/19 06:04:58;;;;;;;13.63;2.80;;;;;;;7.53;100.00;102393.03;4971423;28;20113;-78
2024/02/19 06:07:24;;;;;;;19.88;2.90;;;;;;;7.53;100.00;102393.03;4989351;28;20041;-78
2024/02/19 06:09:49;;;;;;;13.30;2.92;;;;;;;7.55;100.00;102383.47;4972582;28;20034;-78
2024/02/19 06:12:15;;;;;;;16.55;2.65;;;;;;;7.55;100.00;102393.78;5005333;28;20061;-78
2024/02/19 06:14:40;;;;;;;21.83;3.13;;;;;;;7.64;100.00;102391.53;4986881;28;20030;-79
2024/02/19 06:17:05;;;;;;;17.65;3.85;;;;;;;7.57;100.00;102389.34;4970366;28;20485;-79
2024/02/19 06:19:31;;;;;;;19.92;4.07;;;;;;;7.53;100.00;102387.03;4986406;28;20042;-79
2024/02/19 06:21:56;;;;;;;12.95;3.10;;;;;;;7.54;100.00;102386.94;4971496;28;20037;-78
2024/02/19 06:24:22;;;;;;;23.73;3.08;;;;;;;7.55;100.00;102382.63;4988945;28;20396;-78
2024/02/19 06:26:47;;;;;;;19.70;3.88;;;;;;;7.54;100.00;102383.56;4987226;28;20404;-78
2024/02/19 06:29:13;;;;;;;15.57;4.45;;;;;;;7.54;100.00;102386.94;5006662;28;20037;-79
2024/02/19 06:31:38;;;;;;;20.85;2.95;;;;;;;7.53;100.00;102389.63;4974967;28;20116;-78
2024/02/19 06:34:04;;;;;;;19.83;3.58;;;;;;;7.50;100.00;102388.06;4992478;28;20042;-78
2024/02/19 06:36:29;;;;;;;16.50;5.07;;;;;;;7.54;100.00;102386.94;4988177;28;20046;-79
2024/02/19 06:38:55;;;;;;;16.70;3.47;;;;;;;7.58;100.00;102385.81;5009047;28;20080;-79
2024/02/19 06:41:20;;;;;;;23.38;4.18;;;;;;;7.60;100.00;102385.75;5006854;28;20045;-78
2024/02/19 06:43:46;;;;;;;17.58;3.83;;;;;;;7.57;100.00;102386.78;4995219;28;20044;-79
2024/02/19 06:46:11;;;;;;;15.15;3.72;;;;;;;7.59;100.00;102387.50;5007393;28;20045;-78
2024/02/19 06:48:39;;;;;;;16.02;4.28;;;;;;;7.59;100.00;102382.34;5006929;28;20037;-78
2024/02/19 06:51:05;;;;;;;17.05;3.83;;;;;;;7.59;100.00;102386.66;4988356;28;20050;-78
2024/02/19 06:53:30;;;;;;;19.88;3.92;;;;;;;7.57;100.00;102381.59;4989008;28;20069;-79
2024/02/19 06:55:56;;;;;;;12.35;3.38;;;;;;;7.57;100.00;102385.91;4991938;28;20411;-79
2024/02/19 06:58:21;;;;;;;20.27;3.35;;;;;;;7.60;100.00;102375.41;4987130;28;20089;-78
2024/02/19 07:00:47;;;;;;;26.95;4.93;;;;;;;7.58;100.00;102378.09;4990107;28;20042;-79
2024/02/19 07:03:13;;;;;;;21.83;4.22;;;;;;;7.60;100.00;102376.22;4990644;28;20048;-79
2024/02/19 07:05:38;;;;;;;25.67;3.95;;;;;;;7.57;100.00;102386.78;4993905;28;20053;-78
2024/02/19 07:08:04;;;;;;;17.30;3.50;;;;;;;7.62;100.00;102383.88;4973190;28;20046;-78
2024/02/19 07:10:29;;;;;;;20.13;3.75;;;;;;;7.72;100.00;102376.38;4975831;28;20038;-78
2024/02/19 07:12:55;;;;;;;18.05;3.72;;;;;;;7.69;100.00;102368.84;4986689;28;20034;-78
2024/02/19 07:15:20;;;;;;;22.40;4.85;;;;;;;7.69;100.00;102384.34;4974685;28;20030;-78
2024/02/19 07:17:46;;;;;;;24.15;4.00;;;;;;;7.71;100.00;102385.88;4977570;28;20025;-79
2024/02/19 07:20:12;;;;;;;21.52;4.10;;;;;;;7.70;100.00;102389.38;4990821;28;20507;-79
2024/02/19 07:22:37;;;;;;;14.73;3.42;;;;;;;7.69;100.00;102397.25;4971123;28;20058;-78
2024/02/19 07:25:03;;;;;;;17.90;3.60;;;;;;;7.72;100.00;102397.03;4977066;28;20029;-79
2024/02/19 07:27:29;;;;;;;18.48;4.03;;;;;;;7.70;100.00;102388.56;5002860;28;20087;-79
2024/02/19 07:29:54;;;;;;;18.33;4.13;;;;;;;7.71;100.00;102391.03;5007080;28;20057;-79
2024/02/19 07:32:20;;;;;;;17.55;3.55;;;;;;;7.72;100.00;102394.44;4991918;28;20512;-78
2024/02/19 07:34:46;;;;;;;26.75;4.10;;;;;;;7.70;100.00;102402.28;4996399;28;20073;-79
2024/02/19 07:37:11;;;;;;;22.25;6.22;;;;;;;7.80;100.00;102402.53;4989157;28;20440;-79
2024/02/19 07:39:41;;;;;;;37.22;9.18;;;;;;;7.83;100.00;102406.69;4975511;28;20037;-78
2024/02/19 07:42:09;;;;;;;24.73;5.97;;;;;;;7.82;100.00;102398.09;4988031;28;20598;-78
2024/02/19 07:44:35;;;;;;;15.52;3.72;;;;;;;7.84;100.00;102395.44;5011115;28;20069;-79
2024/02/19 07:47:04;;;;;;;21.42;4.38;;;;;;;7.96;100.00;102397.19;4987228;28;20050;-78
2024/02/19 07:49:29;;;;;;;21.70;3.88;;;;;;;7.98;100.00;102391.00;4989323;28;20115;-78
2024/02/19 07:51:55;;;;;;;22.05;4.40;;;;;;;7.93;100.00;102400.81;4973300;28;20058;-79
2024/02/19 07:54:21;;;;;;;17.63;4.18;;;;;;;8.01;100.00;102402.91;4991407;28;20048;-79
2024/02/19 07:56:46;;;;;;;17.30;3.67;;;;;;;8.06;100.00;102400.00;4994545;28;20719;-79
2024/02/19 07:59:12;;;;;;;24.67;3.67;;;;;;;8.09;100.00;102405.00;4988523;28;20022;-78
2024/02/19 08:01:37;;;;;;;17.85;3.63;;;;;;;8.17;100.00;102410.47;4972565;28;20053;-78
2024/02/19 08:04:03;;;;;;;21.75;3.80;;;;;;;8.19;100.00;102400.84;4987052;28;20034;-78
2024/02/19 08:06:29;;;;;;;20.33;3.90;;;;;;;8.16;100.00;102396.72;4987582;28;20069;-78
2024/02/19 08:08:54;;;;;;;20.15;4.18;;;;;;;8.28;100.00;102402.00;4977136;28;20037;-78
2024/02/19 08:11:21;;;;;;;31.40;4.30;;;;;;;8.30;100.00;102400.97;4985132;28;20066;-77
2024/02/19 08:13:47;;;;;;;20.73;3.80;;;;;;;8.29;100.00;102403.69;4987959;28;20034;-78
2024/02/19 08:16:13;;;;;;;22.27;3.90;;;;;;;8.42;100.00;102401.13;4987990;28;20048;-78
2024/02/19 08:18:38;;;;;;;20.60;4.05;;;;;;;8.46;100.00;102389.66;4985523;28;20038;-78
2024/02/19 08:21:04;;;;;;;22.77;4.50;;;;;;;8.38;100.00;102393.56;4989740;28;20136;-78
2024/02/19 08:23:29;;;;;;;22.55;4.57;;;;;;;8.43;100.00;102400.19;4991431;28;20705;-78
2024/02/19 08:25:56;;;;;;;24.30;4.53;;;;;;;8.52;100.00;102391.81;4971866;28;20041;-78
2024/02/19 08:28:21;;;;;;;18.05;4.35;;;;;;;8.49;100.00;102397.19;5007514;28;20440;-78
2024/02/19 08:30:47;;;;;;;25.30;4.47;;;;;;;8.59;100.00;102395.66;4977386;28;20039;-78
2024/02/19 08:33:12;;;;;;;24.60;4.22;;;;;;;8.53;100.00;102401.22;4972916;28;20511;-78
2024/02/19 08:35:37;;;;;;;27.38;4.85;;;;;;;8.63;100.00;102398.88;4974519;28;20421;-78
2024/02/19 08:38:04;;;;;;;27.17;6.15;;;;;;;8.58;100.00;102394.00;4988226;28;20044;-79
2024/02/19 08:40:30;;;;;;;29.25;4.88;;;;;;;8.61;100.00;102403.28;4988299;28;20058;-78
2024/02/19 08:42:56;;;;;;;28.75;5.30;;;;;;;8.71;100.00;102391.41;4972408;28;20399;-77
2024/02/19 08:45:21;;;;;;;25.42;5.40;;;;;;;8.77;100.00;102386.63;4968070;28;20133;-78
2024/02/19 08:47:46;;;;;;;18.42;5.20;;;;;;;8.75;100.00;102391.06;4973198;28;20032;-78
2024/02/19 08:50:13;;;;;;;21.45;5.60;;;;;;;8.85;100.00;102401.59;4991666;28;20030;-78
2024/02/19 08:52:39;;;;;;;24.20;5.18;;;;;;;8.91;100.00;102398.63;4988986;28;20046;-78
2024/02/19 08:55:04;;;;;;;29.65;5.10;;;;;;;8.95;100.00;102394.06;5008770;28;20029;-78
2024/02/19 08:57:30;;;;;;;28.60;4.78;;;;;;;8.90;100.00;102386.59;4989742;28;20060;-78
2024/02/19 08:59:55;;;;;;;18.60;4.95;;;;;;;8.88;100.00;102383.31;4985786;28;20034;-78
2024/02/19 09:02:24;;;;;;;21.48;4.60;;;;;;;8.92;100.00;102381.34;4988607;28;20093;-78
2024/02/19 09:04:49;;;;;;;23.05;6.20;;;;;;;9.11;100.00;102376.50;4987237;28;20485;-78
2024/02/19 09:07:15;;;;;;;22.13;5.60;;;;;;;9.16;100.00;102371.03;4974240;28;20070;-79
2024/02/19 09:09:44;;;;;;;28.33;5.95;;;;;;;9.32;100.00;102373.34;4987252;28;20497;-78
2024/02/19 09:12:11;;;;;;;29.10;5.90;;;;;;;9.34;100.00;102371.47;4983123;28;20080;-79
2024/02/19 09:14:37;;;;;;;22.83;6.22;;;;;;;9.35;100.00;102381.72;4993388;28;20149;-78
2024/02/19 09:17:03;;;;;;;22.33;5.53;;;;;;;9.38;100.00;102372.94;4989921;28;20655;-78
2024/02/19 09:19:28;;;;;;;27.38;6.80;;;;;;;9.51;100.00;102367.66;4986590;28;20042;-78
2024/02/19 09:21:54;;;;;;;27.73;6.30;;;;;;;9.55;100.00;102358.78;5008631;28;20046;-79
2024/02/19 09:24:19;;;;;;;30.42;8.63;;;;;;;9.79;100.00;102366.50;5001667;28;20112;-77
2024/02/19 09:26:44;;;;;;;21.23;6.78;;;;;;;9.99;100.00;102369.41;4985999;28;20632;-79
2024/02/19 09:29:10;;;;;;;29.02;6.80;;;;;;;10.16;100.00;102368.94;4999692;28;20507;-78
2024/02/19 09:31:36;;;;;;;28.75;6.53;;;;;;;10.29;100.00;102368.88;4987743;28;20432;-78
2024/02/19 09:34:02;;;;;;;29.17;6.93;;;;;;;10.24;100.00;102364.00;5006899;28;20419;-77
2024/02/19 09:36:27;;;;;;;33.22;6.88;;;;;;;10.19;100.00;102371.31;4968421;28;20038;-77
2024/02/19 09:38:53;;;;;;;27.17;6.75;;;;;;;10.18;100.00;102369.66;4991389;28;20026;-78
2024/02/19 09:41:19;;;;;;;24.42;6.82;;;;;;;10.27;100.00;102368.16;4998999;28;20034;-78
2024/02/19 09:43:45;;;;;;;21.95;6.05;;;;;;;10.28;100.00;102378.41;4973269;28;20163;-77
2024/02/19 09:46:19;;;;;;;26.20;7.50;;;;;;;10.33;100.00;102371.13;4983350;28;20121;-78
2024/02/19 09:48:51;;;;;;;25.90;6.82;;;;;;;10.38;100.00;102378.56;5002106;28;20528;-78
2024/02/19 09:51:18;;;;;;;30.63;7.30;;;;;;;10.28;100.00;102377.56;4985182;28;20057;-77
2024/02/19 09:53:45;;;;;;;23.15;7.50;;;;;;;10.44;100.00;102383.28;4968222;28;21441;-78
2024/02/19 09:56:17;;;;;;;24.92;7.53;;;;;;;10.35;100.00;102380.56;4989030;28;20038;-77
2024/02/19 09:58:44;;;;;;;28.30;7.32;;;;;;;10.26;100.00;102377.69;4989492;28;20037;-78
2024/02/19 10:01:10;;;;;;;24.05;8.85;;;;;;;10.37;100.00;102386.47;4984886;28;20428;-77
2024/02/19 10:03:35;;;;;;;26.85;7.40;;;;;;;10.34;100.00;102384.94;4977993;28;20029;-78
2024/02/19 10:06:02;;;;;;;27.98;7.90;;;;;;;10.33;100.00;102391.88;4984995;28;20076;-77
2024/02/19 10:08:28;;;;;;;29.45;7.10;;;;;;;10.31;100.00;102391.16;4987344;28;20059;-77
2024/02/19 10:10:55;;;;;;;26.08;6.68;;;;;;;10.38;100.00;102390.69;4984076;28;21607;-77
2024/02/19 10:13:21;;;;;;;22.60;6.35;;;;;;;10.35;100.00;102393.53;4989190;28;20048;-77
2024/02/19 10:15:46;;;;;;;25.45;7.32;;;;;;;10.37;100.00;102391.66;4972625;28;20061;-77
2024/02/19 10:18:18;;;;;;;23.70;6.82;;;;;;;10.37;100.00;102394.25;4973376;28;20493;-77
2024/02/19 10:20:50;;;;;;;28.33;7.15;;;;;;;10.25;100.00;102391.59;4973612;28;20417;-77
2024/02/19 10:23:20;;;;;;;24.02;7.20;;;;;;;10.24;100.00;102392.53;4987778;28;20033;-77
2024/02/19 10:25:46;;;;;;;25.17;7.60;;;;;;;10.41;100.00;102398.25;5005001;28;20050;-78
2024/02/19 10:28:12;;;;;;;21.23;7.28;;;;;;;10.47;100.00;102397.78;4991814;28;20050;-77
2024/02/19 10:30:38;;;;;;;25.45;7.70;;;;;;;10.46;100.00;102386.59;4992656;28;20092;-77
2024/02/19 10:33:04;;;;;;;27.30;7.68;;;;;;;10.51;100.00;102392.25;4989905;28;20022;-78
2024/02/19 10:35:30;;;;;;;21.83;7.50;;;;;;;10.53;100.00;102397.34;4972312;28;20085;-77
2024/02/19 10:37:58;;;;;;;22.20;8.25;;;;;;;10.52;100.00;102387.88;5003054;28;20505;-77
2024/02/19 10:40:24;;;;;;;28.60;8.48;;;;;;;10.52;100.00;102393.06;4991215;28;20050;-78
2024/02/19 10:42:50;;;;;;;46.70;9.48;;;;;;;10.57;100.00;102388.38;4985421;28;20386;-77
2024/02/19 10:45:17;;;;;;;21.80;7.72;;;;;;;10.51;100.00;102376.69;4995073;28;20025;-77
2024/02/19 10:47:47;;;;;;;27.02;8.68;;;;;;;10.46;100.00;102375.41;4991111;28;20369;-77
2024/02/19 10:50:14;;;;;;;31.23;8.18;;;;;;;10.51;100.00;102381.06;4978990;28;20033;-78
2024/02/19 10:52:41;;;;;;;23.92;8.30;;;;;;;10.60;100.00;102369.97;4990997;28;20057;-77
2024/02/19 10:55:15;;;;;;;38.88;8.43;;;;;;;10.81;100.00;102371.84;4987851;28;20029;-77
2024/02/19 10:57:58;;;;;;;28.25;7.85;;;;;;;10.78;100.00;102374.69;4992904;28;20042;-78
2024/02/19 11:00:26;;;;;;;24.98;8.07;;;;;;;10.78;100.00;102372.09;4975995;28;20467;-78
2024/02/19 11:03:09;;;;;;;21.13;8.15;;;;;;;10.75;100.00;102369.72;4992425;28;20030;-78
2024/02/19 11:05:39;;;;;;;28.50;9.00;;;;;;;10.55;100.00;102372.09;4978467;28;20061;-77
2024/02/19 11:08:16;;;;;;;22.65;8.57;;;;;;;10.64;100.00;102367.97;5003745;28;20555;-77
2024/02/19 11:10:47;;;;;;;29.55;9.15;;;;;;;10.61;100.00;102363.03;4991431;28;20046;-78